createdAt,value
2022-08-19T00:04:48.388Z,50.39
2022-08-19T00:09:41.025Z,50.49
2022-08-19T00:14:33.323Z,50.5
2022-08-19T00:19:25.723Z,50.56
2022-08-19T00:24:18.590Z,50.4
2022-08-19T00:29:11.259Z,50.64
2022-08-19T00:34:03.915Z,50.6
2022-08-19T00:38:56.603Z,50.67
2022-08-19T00:43:49.328Z,50.91
2022-08-19T00:48:41.830Z,51.08
2022-08-19T00:53:34.593Z,51.07
2022-08-19T00:58:27.363Z,50.81
2022-08-19T01:03:19.767Z,50.92
2022-08-19T01:08:12.838Z,50.56
2022-08-19T01:13:05.446Z,50.7
2022-08-19T01:17:57.896Z,50.85
2022-08-19T01:22:50.407Z,50.85
2022-08-19T01:27:43.743Z,51.12
2022-08-19T01:32:35.858Z,50.87
2022-08-19T01:37:28.542Z,50.92
2022-08-19T01:42:21.204Z,51.15
2022-08-19T01:47:13.795Z,51.45
2022-08-19T01:52:06.633Z,51.6
2022-08-19T01:56:59.178Z,51.6
2022-08-19T02:06:44.511Z,51.67
2022-08-19T02:16:29.690Z,51.87
2022-08-19T02:21:22.363Z,51.5
2022-08-19T02:26:15.021Z,51.85
2022-08-19T02:31:07.557Z,51.88
2022-08-19T02:36:00.328Z,52.06
2022-08-19T02:40:52.874Z,51.88
2022-08-19T02:45:45.715Z,51.88
2022-08-19T02:50:38.149Z,52.08
2022-08-19T02:55:30.697Z,51.94
2022-08-19T03:00:23.158Z,52.11
2022-08-19T03:05:15.954Z,52.18
2022-08-19T03:10:08.375Z,52.32
2022-08-19T03:15:00.957Z,52.02
2022-08-19T03:19:53.716Z,51.98
2022-08-19T03:24:45.916Z,52.13
2022-08-19T03:29:40.654Z,52.18
2022-08-19T03:34:31.086Z,51.92
2022-08-19T03:39:23.716Z,51.85
2022-08-19T03:44:16.657Z,51.8
2022-08-19T03:49:09.190Z,51.76
2022-08-19T03:54:01.829Z,51.8
2022-08-19T03:58:54.733Z,51.81
2022-08-19T04:03:46.920Z,51.82
2022-08-19T04:08:39.502Z,51.84
2022-08-19T04:13:32.223Z,51.81
2022-08-19T04:18:24.843Z,51.82
2022-08-19T04:23:17.652Z,51.77
2022-08-19T04:28:10.579Z,52
2022-08-19T04:33:03.094Z,51.97
2022-08-19T04:37:55.662Z,51.94
2022-08-19T04:42:48.542Z,51.87
2022-08-19T04:47:47.222Z,53.64
2022-08-19T04:52:32.707Z,55.16
2022-08-19T04:57:25.156Z,55.24
2022-08-19T05:02:17.804Z,55.81
2022-08-19T05:07:10.418Z,57.29
2022-08-19T05:12:02.541Z,59.41
2022-08-19T05:17:06.527Z,57.81
2022-08-19T05:21:47.706Z,60.6
2022-08-19T05:26:39.987Z,58.17
2022-08-19T05:31:32.319Z,58.45
2022-08-19T05:36:24.860Z,57.03
2022-08-19T05:41:17.502Z,57.6
2022-08-19T05:46:10.341Z,58
2022-08-19T05:51:02.723Z,57.73
2022-08-19T05:55:55.230Z,57.79
2022-08-19T06:00:47.692Z,57.48
2022-08-19T06:05:46.337Z,57.44
2022-08-19T06:10:33.016Z,57.52
2022-08-19T06:15:25.303Z,57.12
2022-08-19T06:20:18.783Z,58.11
2022-08-19T06:25:10.139Z,58.96
2022-08-19T06:30:03.008Z,57.59
2022-08-19T06:34:55.028Z,58
2022-08-19T06:39:47.642Z,58.63
2022-08-19T06:44:42.362Z,57.66
2022-08-19T06:49:32.683Z,58.95
2022-08-19T06:54:25.317Z,57.71
2022-08-19T06:59:17.748Z,58.7
2022-08-19T07:04:10.568Z,58.52
2022-08-19T07:09:02.681Z,57.93
2022-08-19T07:13:55.402Z,58.13
2022-08-19T07:18:48.033Z,58.06
2022-08-19T07:23:40.430Z,58.24
2022-08-19T07:28:33.193Z,57.89
2022-08-19T07:33:27.882Z,58.78
2022-08-19T07:38:18.372Z,58.6
2022-08-19T07:43:14.014Z,59.36
2022-08-19T07:48:04.184Z,58.71
2022-08-19T07:52:56.219Z,58.7
2022-08-19T07:57:48.922Z,58.63
2022-08-19T08:02:40.850Z,58.61
2022-08-19T08:12:33.978Z,56.75
2022-08-19T08:22:11.416Z,56.23
2022-08-19T08:31:58.553Z,56.53
2022-08-19T08:41:41.860Z,56.24
2022-08-19T08:46:34.639Z,56.29
2022-08-19T08:51:29.137Z,56.12
2022-08-19T08:56:19.941Z,56.44
2022-08-19T09:01:13.082Z,56.16
2022-08-19T09:06:05.718Z,56.33
2022-08-19T09:10:58.320Z,56.08
2022-08-19T09:15:51.048Z,56.29
2022-08-19T09:20:43.482Z,56.66
2022-08-19T09:25:36.043Z,56.69
2022-08-19T09:30:28.760Z,56.8
2022-08-19T09:35:21.358Z,56.58
2022-08-19T09:40:14.309Z,58.22
2022-08-19T09:45:10.195Z,58.29
2022-08-19T09:50:01.254Z,58.4
2022-08-19T09:54:53.486Z,58.02
2022-08-19T09:59:46.457Z,58.2
2022-08-19T10:04:39.016Z,58.02
2022-08-19T10:09:34.198Z,58.09
2022-08-19T10:14:24.417Z,57.43
2022-08-19T10:19:16.694Z,57.38
2022-08-19T10:24:09.313Z,57.5
2022-08-19T10:29:01.710Z,57.89
2022-08-19T10:33:54.411Z,57.23
2022-08-19T10:38:52.230Z,56.43
2022-08-19T10:43:39.342Z,55.62
2022-08-19T10:48:31.917Z,55.98
2022-08-19T10:53:26.578Z,55.56
2022-08-19T10:58:18.829Z,55.71
2022-08-19T11:03:11.395Z,55.76
2022-08-19T11:08:03.930Z,55.39
2022-08-19T11:12:56.506Z,54.99
2022-08-19T11:17:49.357Z,54.92
2022-08-19T11:22:42.154Z,54.87
2022-08-19T11:27:34.540Z,54.96
2022-08-19T11:32:27.025Z,54.65
2022-08-19T11:37:19.454Z,54.64
2022-08-19T11:42:11.611Z,54.52
2022-08-19T11:47:08.740Z,54.74
2022-08-19T11:51:56.756Z,54.8
2022-08-19T11:56:49.407Z,54.91
2022-08-19T12:01:42.173Z,55.13
2022-08-19T12:06:34.648Z,55.01
2022-08-19T12:11:27.118Z,55.21
2022-08-19T12:16:19.841Z,55.47
2022-08-19T12:21:12.224Z,55.23
2022-08-19T12:26:04.891Z,55.4
2022-08-19T12:30:57.339Z,55.46
2022-08-19T12:35:49.830Z,55.57
2022-08-19T12:40:42.818Z,55.21
2022-08-19T12:45:35.534Z,55.14
2022-08-19T12:50:28.555Z,54.9
2022-08-19T12:55:21.115Z,54.7
2022-08-19T13:00:13.970Z,54.67
2022-08-19T13:05:06.507Z,54.65
2022-08-19T13:09:59.315Z,53.92
2022-08-19T13:14:51.838Z,53.32
2022-08-19T13:19:44.652Z,52.78
2022-08-19T13:24:37.114Z,52.49
2022-08-19T13:29:29.845Z,52.37
2022-08-19T13:34:22.537Z,52.06
2022-08-19T13:39:15.100Z,51.91
2022-08-19T13:44:07.945Z,51.81
2022-08-19T13:49:00.417Z,52.16
2022-08-19T13:53:52.875Z,52.15
2022-08-19T13:58:45.609Z,52.22
2022-08-19T14:03:38.162Z,52.43
2022-08-19T14:08:30.729Z,52.96
2022-08-19T14:18:16.159Z,52.75
2022-08-19T14:28:01.221Z,52.13
2022-08-19T14:37:46.448Z,52.76
2022-08-19T14:42:42.968Z,52.98
2022-08-19T14:47:34.832Z,53.25
2022-08-19T14:52:27.279Z,53.7
2022-08-19T14:57:19.775Z,53.66
2022-08-19T15:02:20.361Z,53.87
2022-08-19T15:07:05.209Z,53.81
2022-08-19T15:11:57.746Z,53.58
2022-08-19T15:16:50.535Z,53.7
2022-08-19T15:21:43.391Z,53.01
2022-08-19T15:26:36.284Z,52.53
2022-08-19T15:31:29.138Z,52.7
2022-08-19T15:36:21.600Z,53.1
2022-08-19T15:41:13.982Z,53.21
2022-08-19T15:46:06.670Z,53.76
2022-08-19T15:50:59.306Z,53.3
2022-08-19T15:55:51.603Z,53.11
2022-08-19T16:00:44.322Z,53.1
2022-08-19T16:05:36.763Z,53.06
2022-08-19T16:10:29.515Z,52.52
2022-08-19T16:15:22.159Z,52.56
2022-08-19T16:20:14.671Z,52.27
2022-08-19T16:25:07.574Z,52.21
2022-08-19T16:30:00.153Z,51.91
2022-08-19T16:34:52.542Z,51.6
2022-08-19T16:39:44.943Z,51.6
2022-08-19T16:44:37.821Z,51.57
2022-08-19T16:49:52.706Z,52.1
2022-08-19T16:54:25.633Z,53.68
2022-08-19T16:59:17.317Z,52.74
2022-08-19T17:04:09.679Z,51.83
2022-08-19T17:09:02.790Z,53.59
2022-08-19T17:13:55.392Z,50.85
2022-08-19T17:18:47.731Z,50.97
2022-08-19T17:23:43.396Z,50.83
2022-08-19T17:28:32.971Z,50.72
2022-08-19T17:33:25.505Z,50.72
2022-08-19T17:38:18.307Z,50.67
2022-08-19T17:43:10.961Z,50.55
2022-08-19T17:48:03.719Z,50.7
2022-08-19T17:52:56.674Z,50.71
2022-08-19T17:57:49.200Z,50.87
2022-08-19T18:02:42.059Z,50.85
2022-08-19T18:07:34.549Z,51.25
2022-08-19T18:12:26.906Z,51.18
2022-08-19T18:17:19.685Z,50.96
2022-08-19T18:22:12.210Z,51.35
2022-08-19T18:27:04.779Z,51.1
2022-08-19T18:31:57.288Z,50.74
2022-08-19T18:36:53.648Z,51.13
2022-08-19T18:41:42.683Z,51.26
2022-08-19T18:46:36.892Z,51.3
2022-08-19T18:51:28.512Z,51.35
2022-08-19T18:56:20.085Z,51.36
2022-08-19T19:01:12.672Z,51.51
2022-08-19T19:06:05.220Z,51.55
2022-08-19T19:10:57.904Z,51.54
2022-08-19T19:15:50.590Z,51.7
2022-08-19T19:20:43.084Z,51.78
2022-08-19T19:25:44.713Z,51.76
2022-08-19T19:30:28.416Z,51.78
2022-08-19T19:35:20.958Z,51.8
2022-08-19T19:40:13.503Z,51.84
2022-08-19T19:45:05.883Z,52.01
2022-08-19T19:54:51.213Z,51.8
2022-08-19T20:04:36.756Z,51.66
2022-08-19T20:14:22.219Z,51.34
2022-08-19T20:19:14.699Z,51.49
2022-08-19T20:24:09.650Z,51.51
2022-08-19T20:29:09.977Z,51.54
2022-08-19T20:33:52.502Z,51.4
2022-08-19T20:38:45.148Z,51.35
2022-08-19T20:43:37.875Z,51.21
2022-08-19T20:48:30.284Z,51.15
2022-08-19T20:53:23.025Z,51.06
2022-08-19T20:58:15.686Z,51.07
2022-08-19T21:03:08.517Z,51.02
2022-08-19T21:08:00.661Z,51.23
2022-08-19T21:12:53.406Z,51.06
2022-08-19T21:17:46.097Z,50.78
2022-08-19T21:22:38.689Z,50.88
2022-08-19T21:27:30.913Z,51.05
2022-08-19T21:32:23.605Z,51.08
2022-08-19T21:37:25.458Z,50.9
2022-08-19T21:42:08.926Z,50.76
2022-08-19T21:47:01.563Z,50.89
2022-08-19T21:51:54.241Z,50.67
2022-08-19T21:56:46.555Z,50.99
2022-08-19T22:01:39.268Z,50.96
2022-08-19T22:06:31.675Z,50.98
2022-08-19T22:11:24.299Z,50.97
2022-08-19T22:16:16.885Z,50.88
2022-08-19T22:21:12.047Z,50.85
2022-08-19T22:26:06.386Z,50.92
2022-08-19T22:30:58.111Z,50.99
2022-08-19T22:35:50.693Z,50.97
2022-08-19T22:40:43.495Z,50.75
2022-08-19T22:45:35.842Z,50.87
2022-08-19T22:50:28.402Z,50.66
2022-08-19T22:55:20.735Z,50.77
2022-08-19T23:00:13.448Z,50.82
2022-08-19T23:05:05.942Z,50.7
2022-08-19T23:09:58.341Z,50.89
2022-08-19T23:14:50.794Z,50.98
2022-08-19T23:19:43.277Z,51.08
2022-08-19T23:24:35.928Z,50.79
2022-08-19T23:29:28.352Z,51.01
2022-08-19T23:34:21.087Z,51.12
2022-08-19T23:39:13.647Z,51.16
2022-08-19T23:44:14.747Z,51.14
2022-08-19T23:49:01.893Z,51.24
2022-08-19T23:53:54.299Z,51.33
2022-08-19T23:58:46.692Z,51.36
